• Join FlightAware (Why Join?)
  • Login
  • US Flag 
08:48AM EST


 

Airport Tracker/Info


-or-


 

Live Flight TrackerFlight Track Log ✈ ASQ5941 ✈ 15-May-2013 ✈ KORD - KAVP

Flight Track Log - Related Links

Times and Time Zones

All times are in EDT time to prevent confusion due to time zone crossing. See the ASQ5941 flight status page for this flight to view local times or setup timezone preferences in your user account.

Time Position Orientation Groundspeed Altitude Reporting Facility
EDT Latitude Longitude Course Direction KTS MPH feet Rate Location/Type
04:30PM 42.0000 -87.8333 77° East 196 226 3,200  Level Chicago TRACON
04:31PM 42.0167 -87.7333 77° East 258 297 4,800 1,750 Climbing Chicago TRACON
04:32PM 42.0167 -87.6333 90° East 287 330 6,700 1,774 Climbing Chicago TRACON
04:34PM 42.0414 -87.4525 80° East 307 353 9,500 1,741 Climbing Chicago Center
04:35PM 42.0631 -87.3331 76° East 326 375 11,400 1,776 Climbing Chicago Center
04:36PM 42.0861 -87.2108 76° East 338 389 13,200 1,500 Climbing Chicago Center
04:37PM 42.1086 -87.0822 77° East 353 406 14,500 1,210 Climbing Chicago Center
04:38PM 42.1181 -86.9425 85° East 373 429 15,700 1,306 Climbing Chicago Center
04:39PM 42.1242 -86.7658 87° East 392 451 17,200 1,452 Climbing Chicago Center
04:40PM 42.1283 -86.6108 88° East 404 465 18,700 1,306 Climbing Chicago Center
04:41PM 42.1331 -86.4561 88° East 412 474 19,900 1,200 Climbing Chicago Center
04:42PM 42.1394 -86.2972 87° East 422 486 21,200 1,258 Climbing Chicago Center
04:43PM 42.1428 -86.1381 88° East 424 488 22,500 1,317 Climbing Chicago Center
04:44PM 42.1431 -85.9567 90° East 430 495 23,900 1,258 Climbing Chicago Center
04:45PM 42.1411 -85.7969 91° East 431 496 25,100 1,210 Climbing Chicago Center
04:46PM 42.1400 -85.6361 90° East 432 497 26,400 1,210 Climbing Chicago Center
04:47PM 42.1383 -85.4753 91° East 433 498 27,600 1,210 Climbing Chicago Center
04:48PM 42.1364 -85.3156 91° East 430 495 28,900 1,291 Climbing Chicago Center
04:48PM 42.1397 -85.2658 85° East 429 494 29,300 1,169 Climbing Cleveland Center
04:49PM 42.1378 -85.1033 91° East 424 488 30,400 850 Climbing Cleveland Center
04:50PM 42.1358 -84.9406 91° East 424 488 31,000 300 Climbing Cleveland Center
04:51PM 42.1317 -84.7722 92° East 437 503 31,000  Level Cleveland Center
04:52PM 42.1275 -84.5956 92° East 449 517 31,000  Level Cleveland Center
04:53PM 42.1272 -84.4164 90° East 467 537 31,000  Level Cleveland Center
04:54PM 42.1206 -84.2367 93° East 474 545 31,000  Level Cleveland Center
04:55PM 42.1181 -84.0544 91° East 484 557 31,000  Level Cleveland Center
04:56PM 42.1172 -83.8725 90° East 484 557 31,000  Level Cleveland Center
04:57PM 42.1122 -83.6678 92° East 489 563 31,000  Level Cleveland Center
04:58PM 42.1067 -83.4828 92° East 494 568 31,000  Level Cleveland Center
04:59PM 42.1053 -83.2925 90° East 499 574 31,000  Level Cleveland Center
05:00PM 42.1011 -83.1075 92° East 499 574 31,000  Level Cleveland Center
05:01PM 42.0967 -82.9197 92° East 499 574 31,000  Level Cleveland Center
05:02PM 42.0897 -82.7347 93° East 499 574 31,000  Level Cleveland Center
05:03PM 42.0869 -82.5472 91° East 499 574 31,000  Level Cleveland Center
05:04PM 42.0839 -82.3597 91° East 499 574 31,000  Level Cleveland Center
05:05PM 42.0781 -82.1750 92° East 494 568 31,000  Level Cleveland Center
05:06PM 42.0722 -81.9931 92° East 494 568 31,000  Level Cleveland Center
05:07PM 42.0639 -81.8108 93° East 494 568 31,000  Level Cleveland Center
05:08PM 42.0594 -81.6292 92° East 494 568 31,000  Level Cleveland Center
05:09PM 42.0525 -81.4500 93° East 489 563 31,000  Level Cleveland Center
05:10PM 42.0494 -81.2878 91° East 478 550 31,000  Level Cleveland Center
05:11PM 42.0422 -81.1061 93° East 478 550 31,000  Level Cleveland Center
05:12PM 42.0344 -80.9242 93° East 483 556 31,000  Level Cleveland Center
05:13PM 42.0267 -80.7425 93° East 478 550 31,000  Level Cleveland Center
05:14PM 42.0183 -80.5383 93° East 490 564 31,000  Level Cleveland Center
05:15PM 42.0078 -80.3567 94° East 490 564 31,000  Level Cleveland Center
05:16PM 42.0008 -80.1725 93° East 495 570 31,000  Level Cleveland Center
05:17PM 41.9897 -80.0078 95° East 495 570 31,000  Level Cleveland Center
05:18PM 41.9764 -79.8319 96° East 490 564 31,000  Level Cleveland Center
05:19PM 41.9561 -79.6478 98° East 490 564 31,000  Level Cleveland Center
05:20PM 41.9378 -79.4667 98° East 490 564 31,000  Level Cleveland Center
05:21PM 41.9192 -79.2800 98° East 490 564 31,000  Level Cleveland Center
05:22PM 41.8981 -79.0822 98° East 495 570 31,000  Level Cleveland Center
05:23PM 41.8856 -78.9347 96° East 495 570 31,000  Level Cleveland Center
05:24PM 41.8617 -78.7347 99° East 495 570 31,000  Level Cleveland Center
05:25PM 41.8419 -78.5514 98° East 500 575 31,000 -450 Level Cleveland Center
05:26PM 41.8219 -78.3708 98° East 500 575 30,100 -850 Descending Cleveland Center
05:27PM 41.8017 -78.1931 99° East 495 570 29,300 -814 Descending Cleveland Center
05:28PM 41.7850 -78.0289 98° East 496 571 28,500 -864 Descending New York Center
05:29PM 41.7628 -77.8428 99° East 502 578 27,600 -1,261 Descending New York Center
05:30PM 41.7403 -77.6597 99° East 507 583 26,000 -1,765 Descending New York Center
05:31PM 41.7197 -77.4714 98° East 507 583 24,100 -1,500 Descending New York Center
05:32PM 41.6986 -77.2914 99° East 507 583 23,000 -992 Descending New York Center
05:33PM 41.6736 -77.1000 100° East 495 570 22,100 -1,686 Descending New York Center
05:34PM 41.6533 -76.9286 99° East 480 552 19,600 -2,430 Descending New York Center
05:35PM 41.6328 -76.7631 99° East 462 532 17,200 -2,695 Descending New York Center
05:36PM 41.6150 -76.6169 99° East 442 509 14,300 -2,949 Descending New York Center
05:37PM 41.5956 -76.4572 99° East 434 499 11,400 -1,902 Descending New York Center
05:39PM 41.5665 -76.2825 105° East  Level FlightAware Approximate
05:39PM 41.5572 -76.1656 105° East 375 432 8,500  Level New York Center
05:40PM 41.5311 -76.0500 107° East 343 395 8,000 -756 Descending New York Center
05:41PM 41.5008 -75.9367 110° East 329 379 7,000 -1,240 Descending New York Center
05:42PM 41.4722 -75.8267 109° East 318 366 5,500 -1,373 Descending New York Center
05:43PM 41.4453 -75.7222 109° East 306 352 4,300 -1,017 Descending New York Center
05:44PM 41.4144 -75.6644 125° Southeast 222 255 3,500 -1,240 Descending New York Center
05:45PM 41.3844 -75.6844 207° Southwest 124 143 1,800 -1,091 Descending New York Center
05:46PM 41.3606 -75.7075 216° Southwest 108 124 1,300 3,570 Descending New York Center
05:47PM 41.3272 -75.7053 177° South 108 124 9,000 3,818 Climbing New York Center
05:48PM 41.2961 -75.7031 177° South 108 124 9,000  Level New York Center
05:49PM 41.2650 -75.7006 177° South 108 124 9,000  Level New York Center
05:50PM 41.2400 -75.6989 177° South 108 124 9,000  Level New York Center
05:52PM 41.3333 -75.7167 346° North  Level FlightAware Approximate
05:59PM 41.3385 -75.7234 346° North  Level Estimated
06:00PM 41.3333 -75.7167 346° North  Level FlightAware Approximate
06:01PM 41.3385 -75.7234 346° North  Level Estimated